Time;durP1;ratioP1;P1;durP2;ratioP2;P2;SDS_P1;SDS_P2;PMS_P1;PMS_P2;Temp;Humidity;BMP_temperature;BMP_pressure;BME280_temperature;BME280_humidity;BME280_pressure;Samples;Min_cycle;Max_cycle;Signal;HPM_P1;HPM_P2
2023/05/04 00:01:45;;;;;;;1.42;0.80;;;9.90;63.60;;;;;;5112663;28;20047;-69
2023/05/04 00:04:12;;;;;;;1.00;0.90;;;9.90;63.70;;;;;;5112601;28;20039;-68
2023/05/04 00:06:38;;;;;;;0.90;0.80;;;9.90;63.70;;;;;;5112615;28;20481;-69
2023/05/04 00:09:05;;;;;;;1.25;1.10;;;9.80;63.80;;;;;;5112592;28;20039;-68
2023/05/04 00:11:31;;;;;;;1.25;1.00;;;9.80;63.90;;;;;;5112406;28;20100;-68
2023/05/04 00:13:59;;;;;;;1.00;0.82;;;9.80;64.00;;;;;;5112897;28;20035;-68
2023/05/04 00:16:25;;;;;;;1.02;0.80;;;9.80;64.10;;;;;;5112935;28;20028;-69
2023/05/04 00:18:50;;;;;;;1.38;1.10;;;9.80;64.10;;;;;;5112572;28;20044;-68
2023/05/04 00:21:16;;;;;;;0.98;0.80;;;9.70;64.20;;;;;;5112249;28;20039;-68
2023/05/04 00:23:41;;;;;;;0.80;0.73;;;9.70;64.30;;;;;;5112619;28;20046;-69
2023/05/04 00:26:07;;;;;;;1.38;0.90;;;9.80;64.50;;;;;;5112320;28;20386;-69
2023/05/04 00:28:33;;;;;;;1.00;0.90;;;9.70;64.50;;;;;;5112758;28;20047;-68
2023/05/04 00:30:58;;;;;;;0.80;0.80;;;9.60;64.50;;;;;;5112375;28;20054;-68
2023/05/04 00:33:24;;;;;;;1.10;1.00;;;9.60;64.60;;;;;;5112631;28;20062;-69
2023/05/04 00:35:50;;;;;;;1.15;1.00;;;9.60;64.70;;;;;;5112506;28;20032;-69
2023/05/04 00:38:16;;;;;;;0.80;0.70;;;9.60;64.80;;;;;;5112570;28;20063;-68
2023/05/04 00:40:42;;;;;;;1.00;0.90;;;9.50;64.80;;;;;;5097653;28;20046;-69
2023/05/04 00:43:08;;;;;;;2.33;1.02;;;9.50;64.90;;;;;;5115997;28;20405;-68
2023/05/04 00:45:34;;;;;;;1.63;0.90;;;9.50;65.00;;;;;;5115988;28;20397;-69
2023/05/04 00:47:59;;;;;;;1.60;1.00;;;9.50;65.10;;;;;;5115673;28;20036;-69
2023/05/04 00:50:26;;;;;;;1.30;0.88;;;9.50;65.10;;;;;;5115498;28;20031;-69
2023/05/04 00:52:54;;;;;;;0.93;0.85;;;9.40;65.10;;;;;;5115472;28;20459;-69
2023/05/04 00:55:21;;;;;;;1.25;0.88;;;9.40;65.20;;;;;;5097279;28;20055;-68
2023/05/04 00:57:49;;;;;;;1.35;0.98;;;9.40;65.30;;;;;;5115932;28;20044;-69
2023/05/04 01:00:15;;;;;;;0.82;0.73;;;9.40;65.40;;;;;;5115935;28;20126;-69
2023/05/04 01:02:41;;;;;;;1.02;0.93;;;9.30;65.50;;;;;;5097061;28;20134;-69
2023/05/04 01:05:09;;;;;;;1.13;0.93;;;9.30;65.50;;;;;;5115407;28;20089;-68
2023/05/04 01:07:58;;;;;;;1.02;0.93;;;9.30;65.60;;;;;;5116001;28;20067;-69
2023/05/04 01:10:43;;;;;;;1.00;0.80;;;9.30;65.80;;;;;;5096929;28;20062;-69
2023/05/04 01:13:12;;;;;;;1.15;0.90;;;9.20;65.70;;;;;;5115201;28;20039;-68
2023/05/04 01:15:39;;;;;;;1.10;0.90;;;9.20;65.80;;;;;;5115545;28;20088;-68
2023/05/04 01:18:05;;;;;;;0.68;0.55;;;9.10;65.80;;;;;;5115216;28;20435;-69
2023/05/04 01:20:31;;;;;;;1.00;0.90;;;9.10;65.90;;;;;;5115221;28;20553;-68
2023/05/04 01:22:57;;;;;;;1.55;0.77;;;9.20;66.00;;;;;;5114931;28;20043;-69
2023/05/04 01:25:30;;;;;;;1.00;0.88;;;9.10;66.10;;;;;;5115458;28;20044;-69
2023/05/04 01:28:03;;;;;;;0.90;0.80;;;9.10;66.20;;;;;;5115134;28;20039;-69
2023/05/04 01:30:34;;;;;;;0.88;0.80;;;9.10;66.20;;;;;;5114887;28;20059;-68
2023/05/04 01:33:01;;;;;;;1.40;0.90;;;9.10;66.30;;;;;;5097730;28;20127;-69
2023/05/04 01:35:27;;;;;;;1.30;0.98;;;9.10;66.30;;;;;;5115348;28;20370;-69
2023/05/04 01:37:53;;;;;;;1.15;0.90;;;9.00;66.30;;;;;;5115295;28;20477;-69
2023/05/04 01:40:19;;;;;;;0.70;0.70;;;9.00;66.40;;;;;;5096454;28;20080;-69
2023/05/04 01:42:45;;;;;;;1.50;0.80;;;9.00;66.50;;;;;;5114750;28;20035;-69
2023/05/04 01:45:11;;;;;;;1.10;0.68;;;8.90;66.50;;;;;;5096647;28;20391;-69
2023/05/04 01:47:36;;;;;;;1.35;0.80;;;8.90;66.60;;;;;;5115300;28;20039;-69
2023/05/04 01:50:04;;;;;;;0.65;0.65;;;8.90;66.70;;;;;;5114483;28;20135;-68
2023/05/04 01:52:30;;;;;;;0.80;0.60;;;8.90;66.80;;;;;;5096284;28;20035;-69
2023/05/04 01:54:56;;;;;;;0.73;0.57;;;8.80;66.80;;;;;;5114486;28;20074;-69
2023/05/04 01:57:22;;;;;;;0.70;0.70;;;8.80;66.90;;;;;;5096476;28;20095;-69
2023/05/04 01:59:47;;;;;;;1.08;0.90;;;8.80;67.00;;;;;;5114616;28;20114;-69
2023/05/04 02:02:13;;;;;;;0.80;0.80;;;8.80;67.00;;;;;;5114445;28;20431;-69
2023/05/04 02:04:40;;;;;;;0.80;0.68;;;8.70;67.10;;;;;;5114433;28;20538;-69
2023/05/04 02:07:06;;;;;;;0.90;0.73;;;8.70;67.10;;;;;;5079547;28;20031;-69
2023/05/04 02:09:32;;;;;;;0.80;0.70;;;8.70;67.20;;;;;;5114696;28;20470;-69
2023/05/04 02:11:57;;;;;;;0.80;0.80;;;8.70;67.30;;;;;;5114675;28;20047;-69
2023/05/04 02:14:23;;;;;;;0.70;0.65;;;8.70;67.40;;;;;;5096385;28;20063;-69
2023/05/04 02:16:49;;;;;;;0.98;0.88;;;8.60;67.30;;;;;;5114392;28;20043;-69
2023/05/04 02:19:14;;;;;;;0.85;0.75;;;8.60;67.40;;;;;;5114844;28;20127;-69
2023/05/04 02:21:41;;;;;;;0.90;0.70;;;8.60;67.40;;;;;;5114720;28;20044;-69
2023/05/04 02:24:07;;;;;;;0.80;0.70;;;8.60;67.50;;;;;;5096112;28;20074;-69
2023/05/04 02:26:33;;;;;;;1.15;0.80;;;8.60;67.50;;;;;;5114132;28;20040;-69
2023/05/04 02:28:58;;;;;;;1.30;1.00;;;8.60;67.60;;;;;;5113954;28;20036;-69
2023/05/04 02:31:24;;;;;;;0.85;0.60;;;8.60;67.60;;;;;;5113940;28;20027;-69
2023/05/04 02:33:52;;;;;;;1.42;0.90;;;8.50;67.70;;;;;;5113977;28;20433;-69
2023/05/04 02:36:17;;;;;;;1.17;0.73;;;8.60;67.80;;;;;;5113993;28;20039;-69
2023/05/04 02:38:43;;;;;;;0.70;0.60;;;8.50;67.70;;;;;;5095887;28;20050;-69
2023/05/04 02:41:09;;;;;;;1.17;0.77;;;8.50;67.80;;;;;;5114348;28;20039;-69
2023/05/04 02:43:34;;;;;;;1.00;0.70;;;8.50;67.80;;;;;;5114071;28;20046;-69
2023/05/04 02:46:00;;;;;;;0.90;0.80;;;8.40;67.80;;;;;;5114116;28;20043;-68
2023/05/04 02:48:25;;;;;;;1.35;0.85;;;8.50;67.90;;;;;;5113953;28;20088;-69
2023/05/04 02:50:51;;;;;;;0.60;0.60;;;8.40;67.90;;;;;;5095372;28;20122;-69
2023/05/04 02:53:17;;;;;;;0.98;0.85;;;8.50;68.00;;;;;;5113587;28;20039;-69
2023/05/04 02:55:42;;;;;;;0.70;0.70;;;8.40;68.10;;;;;;5095220;28;20485;-69
2023/05/04 02:58:08;;;;;;;1.17;0.68;;;8.40;68.10;;;;;;5095759;28;20048;-68
2023/05/04 03:00:34;;;;;;;1.02;0.80;;;8.40;68.20;;;;;;5113485;28;20118;-69
2023/05/04 03:03:00;;;;;;;0.63;0.60;;;8.40;68.30;;;;;;5112235;28;20067;-69
2023/05/04 03:05:25;;;;;;;0.60;0.60;;;8.30;68.30;;;;;;5094331;28;20040;-68
2023/05/04 03:07:51;;;;;;;1.17;0.77;;;8.30;68.30;;;;;;5114146;28;20385;-69
2023/05/04 03:10:17;;;;;;;0.88;0.80;;;8.30;68.30;;;;;;5113511;28;20491;-68
2023/05/04 03:12:43;;;;;;;0.82;0.80;;;8.40;68.50;;;;;;5114099;28;20129;-68
2023/05/04 03:15:09;;;;;;;0.73;0.63;;;8.30;68.50;;;;;;5113976;28;20054;-69
2023/05/04 03:17:35;;;;;;;0.70;0.70;;;8.30;68.50;;;;;;5095640;28;20047;-69
2023/05/04 03:20:01;;;;;;;0.93;0.77;;;8.20;68.50;;;;;;5113860;28;20485;-69
2023/05/04 03:22:27;;;;;;;0.60;0.50;;;8.20;68.60;;;;;;5113184;28;20500;-69
2023/05/04 03:24:52;;;;;;;1.08;0.90;;;8.30;68.70;;;;;;5113610;28;20035;-69
2023/05/04 03:27:18;;;;;;;0.70;0.57;;;8.30;68.70;;;;;;5113620;28;20068;-69
2023/05/04 03:29:44;;;;;;;0.68;0.60;;;8.20;68.70;;;;;;5113286;28;20102;-69
2023/05/04 03:32:11;;;;;;;1.10;0.60;;;8.20;69.40;;;;;;5113247;28;20044;-69
2023/05/04 03:34:37;;;;;;;1.23;0.63;;;8.20;68.80;;;;;;5113747;28;20040;-70
2023/05/04 03:37:03;;;;;;;0.77;0.68;;;8.10;68.90;;;;;;5113017;28;20130;-69
2023/05/04 03:39:29;;;;;;;0.60;0.60;;;8.10;68.90;;;;;;5113248;28;20063;-69
2023/05/04 03:41:54;;;;;;;0.98;0.63;;;8.10;69.00;;;;;;5112869;28;20485;-69
2023/05/04 03:44:20;;;;;;;0.63;0.60;;;8.10;69.00;;;;;;5094866;28;20043;-69
2023/05/04 03:46:46;;;;;;;1.10;0.80;;;8.10;69.00;;;;;;5113397;28;20122;-69
2023/05/04 03:49:12;;;;;;;0.90;0.73;;;8.10;69.10;;;;;;5113101;28;20118;-69
2023/05/04 03:51:38;;;;;;;0.98;0.60;;;8.10;69.20;;;;;;5113016;28;20063;-69
2023/05/04 03:54:03;;;;;;;0.88;0.65;;;8.00;69.20;;;;;;5094531;28;20531;-69
2023/05/04 03:56:29;;;;;;;0.88;0.80;;;8.10;69.30;;;;;;5094518;28;20039;-69
2023/05/04 03:58:54;;;;;;;0.85;0.65;;;8.00;69.30;;;;;;5112566;28;20392;-69
2023/05/04 04:01:20;;;;;;;0.90;0.60;;;8.00;69.30;;;;;;5112774;28;20040;-68
2023/05/04 04:03:46;;;;;;;0.60;0.60;;;8.10;69.40;;;;;;5113170;28;20039;-69
2023/05/04 04:06:12;;;;;;;1.00;0.73;;;8.00;69.40;;;;;;5112905;28;20036;-69
2023/05/04 04:08:37;;;;;;;0.90;0.63;;;7.90;69.40;;;;;;5094053;28;20036;-69
2023/05/04 04:11:03;;;;;;;0.95;0.80;;;7.90;69.50;;;;;;5113176;28;20170;-69
2023/05/04 04:13:29;;;;;;;0.68;0.68;;;7.90;69.50;;;;;;5094284;28;20051;-68
2023/05/04 04:15:55;;;;;;;0.65;0.52;;;7.90;69.50;;;;;;5094265;28;20046;-69
2023/05/04 04:18:22;;;;;;;0.38;0.32;;;7.90;69.60;;;;;;5112816;28;20042;-69
2023/05/04 04:20:47;;;;;;;0.82;0.70;;;7.90;69.60;;;;;;5112837;28;20089;-69
2023/05/04 04:23:17;;;;;;;0.85;0.70;;;7.90;69.70;;;;;;5094174;28;20094;-68
2023/05/04 04:25:43;;;;;;;0.50;0.50;;;7.90;69.70;;;;;;5094382;28;20043;-69
2023/05/04 04:28:09;;;;;;;0.90;0.60;;;7.90;69.70;;;;;;5093437;28;20131;-70
2023/05/04 04:30:34;;;;;;;0.82;0.80;;;7.90;69.70;;;;;;5112551;28;20553;-70
2023/05/04 04:33:01;;;;;;;1.42;0.80;;;7.90;69.70;;;;;;5113175;28;20190;-69
2023/05/04 04:35:26;;;;;;;1.27;0.90;;;7.90;69.70;;;;;;5113067;28;20082;-69
2023/05/04 04:37:52;;;;;;;1.35;0.85;;;7.90;69.80;;;;;;5113013;28;20068;-70
2023/05/04 04:40:18;;;;;;;1.27;0.70;;;7.90;69.70;;;;;;5094390;28;20040;-69
2023/05/04 04:42:43;;;;;;;0.90;0.70;;;7.90;69.70;;;;;;5112379;28;20087;-70
2023/05/04 04:45:09;;;;;;;0.88;0.68;;;7.90;69.70;;;;;;5112459;28;20036;-70
2023/05/04 04:47:35;;;;;;;0.80;0.80;;;8.00;69.70;;;;;;5094198;28;20541;-70
2023/05/04 04:50:02;;;;;;;0.75;0.75;;;8.00;69.70;;;;;;5094278;28;20031;-70
2023/05/04 04:52:27;;;;;;;1.05;0.70;;;8.00;69.70;;;;;;5094046;28;20055;-70
2023/05/04 04:54:53;;;;;;;1.58;0.90;;;8.00;69.70;;;;;;5093969;28;20047;-70
2023/05/04 04:57:19;;;;;;;0.77;0.70;;;8.00;69.70;;;;;;5112812;28;20067;-70
2023/05/04 04:59:45;;;;;;;1.02;0.85;;;8.10;69.80;;;;;;5112462;28;20119;-70
2023/05/04 05:02:10;;;;;;;1.35;0.70;;;8.10;69.70;;;;;;5059786;28;20048;-70
2023/05/04 05:04:40;;;;;;;0.80;0.80;;;8.10;69.60;;;;;;5094576;28;20052;-70
2023/05/04 05:07:07;;;;;;;1.00;0.90;;;8.10;69.60;;;;;;5112202;28;20028;-70
2023/05/04 05:09:32;;;;;;;0.90;0.80;;;8.20;69.60;;;;;;5094465;28;20036;-70
2023/05/04 05:11:58;;;;;;;0.80;0.73;;;8.20;69.60;;;;;;5112186;28;20411;-69
2023/05/04 05:14:24;;;;;;;1.45;0.80;;;8.30;69.60;;;;;;5112214;28;20396;-70
2023/05/04 05:16:49;;;;;;;0.70;0.70;;;8.30;69.50;;;;;;5111913;28;20042;-69
2023/05/04 05:19:15;;;;;;;0.80;0.50;;;8.30;69.50;;;;;;5112056;28;20040;-69
2023/05/04 05:21:40;;;;;;;0.90;0.80;;;8.30;69.50;;;;;;5112171;28;20078;-70
2023/05/04 05:24:06;;;;;;;0.90;0.70;;;8.30;69.50;;;;;;5112376;28;20463;-69
2023/05/04 05:26:32;;;;;;;1.17;0.70;;;8.40;69.40;;;;;;5114197;28;20039;-69
2023/05/04 05:28:58;;;;;;;1.10;0.90;;;8.40;69.40;;;;;;5115490;28;20081;-69
2023/05/04 05:31:23;;;;;;;0.73;0.73;;;8.50;69.40;;;;;;5097451;28;20438;-69
2023/05/04 05:33:50;;;;;;;1.00;0.65;;;8.60;69.20;;;;;;5115608;28;20070;-69
2023/05/04 05:36:15;;;;;;;0.52;0.52;;;8.60;69.20;;;;;;5115357;28;20032;-69
2023/05/04 05:38:41;;;;;;;1.40;0.88;;;8.60;69.20;;;;;;5115396;28;20039;-70
2023/05/04 05:41:08;;;;;;;0.65;0.65;;;8.60;69.30;;;;;;5115250;28;20046;-69
2023/05/04 05:43:35;;;;;;;0.80;0.63;;;8.60;69.20;;;;;;5115552;28;20039;-69
2023/05/04 05:46:01;;;;;;;1.40;0.70;;;8.70;69.30;;;;;;5115383;28;20119;-70
2023/05/04 05:48:27;;;;;;;1.27;1.00;;;8.70;69.30;;;;;;5097476;28;20444;-70
2023/05/04 05:50:52;;;;;;;1.00;0.90;;;8.80;69.20;;;;;;5115403;28;20114;-69
2023/05/04 05:53:18;;;;;;;0.98;0.68;;;8.80;69.20;;;;;;5096939;28;20047;-69
2023/05/04 05:55:45;;;;;;;0.93;0.80;;;8.90;69.20;;;;;;5115021;28;20039;-70
2023/05/04 05:58:10;;;;;;;1.23;0.90;;;8.90;69.10;;;;;;5114842;28;20028;-70
2023/05/04 06:00:36;;;;;;;0.70;0.70;;;9.00;69.20;;;;;;5097150;28;20393;-70
2023/05/04 06:03:02;;;;;;;1.35;0.88;;;9.00;69.10;;;;;;5115129;28;20084;-70
2023/05/04 06:05:27;;;;;;;0.90;0.82;;;9.10;69.10;;;;;;5097164;28;20112;-70
2023/05/04 06:07:53;;;;;;;1.08;0.90;;;9.10;69.10;;;;;;5096538;28;20055;-70
2023/05/04 06:10:19;;;;;;;1.27;0.80;;;9.20;69.00;;;;;;5114922;28;20028;-70
2023/05/04 06:12:44;;;;;;;0.82;0.70;;;9.20;69.00;;;;;;5115079;28;20031;-70
2023/05/04 06:15:12;;;;;;;1.65;0.90;;;9.30;69.00;;;;;;5115039;28;20031;-70
2023/05/04 06:17:38;;;;;;;0.90;0.80;;;9.30;68.90;;;;;;5097207;28;20043;-71
2023/05/04 06:20:04;;;;;;;1.58;0.90;;;9.30;68.80;;;;;;5115056;28;20059;-71
2023/05/04 06:22:30;;;;;;;1.33;1.10;;;9.40;68.80;;;;;;5114459;28;20064;-70
2023/05/04 06:24:56;;;;;;;1.48;1.10;;;9.50;68.90;;;;;;5115019;28;20334;-70
2023/05/04 06:27:21;;;;;;;1.42;0.95;;;9.50;68.70;;;;;;5096105;28;20040;-70
2023/05/04 06:29:47;;;;;;;2.00;0.90;;;9.70;68.80;;;;;;5114376;28;20070;-69
2023/05/04 06:32:13;;;;;;;1.35;1.08;;;9.60;68.60;;;;;;5114448;28;20067;-70
2023/05/04 06:34:38;;;;;;;0.90;0.90;;;9.70;68.60;;;;;;5114367;28;20089;-70
2023/05/04 06:37:04;;;;;;;1.05;0.63;;;9.80;68.60;;;;;;5114644;28;20413;-70
2023/05/04 06:39:30;;;;;;;0.90;0.80;;;9.90;68.50;;;;;;5114390;28;20107;-70
2023/05/04 06:41:56;;;;;;;1.42;0.85;;;9.90;68.50;;;;;;5114489;28;20370;-70
2023/05/04 06:44:21;;;;;;;0.70;0.70;;;10.00;68.40;;;;;;5114109;28;20450;-70
2023/05/04 06:46:47;;;;;;;1.35;0.90;;;10.00;68.30;;;;;;5114002;28;20040;-71
2023/05/04 06:49:12;;;;;;;0.73;0.70;;;10.10;68.30;;;;;;5114130;28;20040;-71
2023/05/04 06:51:38;;;;;;;0.82;0.80;;;10.20;68.30;;;;;;5095645;28;20047;-70
2023/05/04 06:54:05;;;;;;;1.00;0.80;;;10.30;68.20;;;;;;5114097;28;20047;-70
2023/05/04 06:56:31;;;;;;;0.77;0.73;;;10.30;68.20;;;;;;5114366;28;20480;-71
2023/05/04 06:58:57;;;;;;;1.25;0.75;;;10.40;68.10;;;;;;5114332;28;20040;-70
2023/05/04 07:01:22;;;;;;;1.00;0.90;;;10.50;68.10;;;;;;5095571;28;20197;-71
2023/05/04 07:03:48;;;;;;;1.42;0.98;;;10.50;68.10;;;;;;5113650;28;20541;-70
2023/05/04 07:06:13;;;;;;;1.05;0.90;;;10.70;68.20;;;;;;5095555;28;20046;-70
2023/05/04 07:08:39;;;;;;;1.38;0.90;;;10.60;68.00;;;;;;5095974;28;20108;-70
2023/05/04 07:11:05;;;;;;;1.00;0.90;;;10.60;68.00;;;;;;5113671;28;20040;-70
2023/05/04 07:13:31;;;;;;;1.00;0.90;;;10.70;68.00;;;;;;5113854;28;20039;-71
2023/05/04 07:15:56;;;;;;;0.85;0.77;;;10.90;68.10;;;;;;5113659;28;20043;-70
2023/05/04 07:18:22;;;;;;;0.60;0.60;;;10.90;68.00;;;;;;5095185;28;20131;-70
2023/05/04 07:20:48;;;;;;;0.85;0.80;;;10.90;68.00;;;;;;5095281;28;20048;-70
2023/05/04 07:23:13;;;;;;;1.35;0.88;;;11.10;68.00;;;;;;5095017;28;20048;-70
2023/05/04 07:25:39;;;;;;;1.10;0.98;;;11.10;67.90;;;;;;5113360;28;20085;-70
2023/05/04 07:28:05;;;;;;;0.88;0.88;;;11.20;67.90;;;;;;5113396;28;20046;-70
2023/05/04 07:30:31;;;;;;;1.00;0.90;;;11.10;67.80;;;;;;5113821;28;20038;-70
2023/05/04 07:32:56;;;;;;;1.88;1.25;;;11.20;68.00;;;;;;5113811;28;20043;-70
2023/05/04 07:35:22;;;;;;;0.80;0.80;;;11.20;68.10;;;;;;5095085;28;20089;-70
2023/05/04 07:37:48;;;;;;;0.77;0.70;;;11.30;68.20;;;;;;5113783;28;20510;-70
2023/05/04 07:40:14;;;;;;;1.10;1.00;;;11.40;68.00;;;;;;5113849;28;20911;-70
2023/05/04 07:42:40;;;;;;;1.10;0.90;;;11.50;67.90;;;;;;5113711;28;20378;-71
2023/05/04 07:45:07;;;;;;;1.05;0.90;;;11.60;67.80;;;;;;5113234;28;20039;-71
2023/05/04 07:47:33;;;;;;;1.05;0.93;;;11.70;67.70;;;;;;5113646;28;20036;-71
2023/05/04 07:49:59;;;;;;;0.90;0.80;;;11.90;67.60;;;;;;5112517;28;20032;-70
2023/05/04 07:52:25;;;;;;;0.70;0.70;;;12.00;67.50;;;;;;5113206;28;20035;-70
2023/05/04 07:54:52;;;;;;;1.00;0.90;;;12.20;67.30;;;;;;5113164;28;20043;-71
2023/05/04 07:57:18;;;;;;;0.80;0.73;;;12.30;67.10;;;;;;5112938;28;20040;-70
2023/05/04 07:59:43;;;;;;;1.33;0.90;;;12.60;66.90;;;;;;5094726;28;20568;-71
2023/05/04 08:02:09;;;;;;;0.88;0.88;;;12.70;66.70;;;;;;5113447;28;20061;-70
2023/05/04 08:04:35;;;;;;;1.08;0.90;;;12.90;66.60;;;;;;5113097;28;20477;-70
2023/05/04 08:07:01;;;;;;;1.15;0.88;;;13.10;66.30;;;;;;5112938;28;20134;-71
2023/05/04 08:09:30;;;;;;;0.80;0.63;;;13.20;66.20;;;;;;5112807;28;20028;-70
2023/05/04 08:11:55;;;;;;;1.48;1.10;;;13.40;66.00;;;;;;5113360;28;20043;-73
2023/05/04 08:14:21;;;;;;;0.90;0.80;;;13.40;66.00;;;;;;5112709;28;20036;-71
2023/05/04 08:16:47;;;;;;;0.93;0.82;;;13.40;66.00;;;;;;5112911;28;20035;-71
2023/05/04 08:19:13;;;;;;;1.85;0.85;;;13.60;66.00;;;;;;5094415;28;20439;-71
2023/05/04 08:21:39;;;;;;;1.38;0.93;;;13.90;66.00;;;;;;5112644;28;20035;-71
2023/05/04 08:24:05;;;;;;;1.08;1.00;;;14.00;65.80;;;;;;5112648;28;20086;-70
2023/05/04 08:26:31;;;;;;;1.00;0.90;;;14.10;65.50;;;;;;5112481;28;20508;-71
2023/05/04 08:29:06;;;;;;;1.13;0.95;;;14.30;65.50;;;;;;5112790;28;20043;-70
2023/05/04 08:31:33;;;;;;;0.80;0.80;;;14.40;65.40;;;;;;5112758;28;20036;-71
2023/05/04 08:33:58;;;;;;;0.70;0.70;;;14.60;65.40;;;;;;5112991;28;20067;-73
2023/05/04 08:36:25;;;;;;;0.77;0.75;;;14.80;65.20;;;;;;5112539;28;20047;-70
2023/05/04 08:38:52;;;;;;;1.13;1.00;;;14.90;64.90;;;;;;5112491;28;20051;-70
2023/05/04 08:41:18;;;;;;;0.63;0.63;;;15.00;64.80;;;;;;5112492;28;20127;-72
2023/05/04 08:43:45;;;;;;;1.63;1.00;;;15.10;64.90;;;;;;5094735;28;20123;-71
2023/05/04 08:46:13;;;;;;;2.28;1.15;;;15.20;64.90;;;;;;5112514;28;20036;-70
2023/05/04 08:48:38;;;;;;;1.05;0.70;;;15.40;64.80;;;;;;5093841;28;20040;-70
2023/05/04 08:51:05;;;;;;;0.70;0.70;;;15.50;64.80;;;;;;5112118;28;20032;-70
2023/05/04 08:53:36;;;;;;;0.75;0.70;;;15.70;64.70;;;;;;5112360;28;20476;-70
2023/05/04 08:56:06;;;;;;;1.67;0.60;;;15.90;64.50;;;;;;5112295;28;20036;-70
2023/05/04 08:58:36;;;;;;;1.15;0.70;;;16.10;64.40;;;;;;5112189;28;20041;-70
2023/05/04 09:01:03;;;;;;;0.70;0.70;;;16.20;64.10;;;;;;5113197;28;20385;-70
2023/05/04 09:03:29;;;;;;;1.15;0.63;;;16.40;64.10;;;;;;5095538;28;20086;-70
2023/05/04 09:05:56;;;;;;;1.33;0.90;;;16.50;64.10;;;;;;5115535;28;20039;-70
2023/05/04 09:08:22;;;;;;;2.13;1.00;;;16.50;64.00;;;;;;5097274;28;20036;-70
2023/05/04 09:10:47;;;;;;;0.60;0.60;;;16.60;64.00;;;;;;5115569;28;20036;-70
2023/05/04 09:13:13;;;;;;;1.17;0.80;;;16.80;63.90;;;;;;5115792;28;20123;-70
2023/05/04 09:15:39;;;;;;;1.63;0.90;;;16.90;63.80;;;;;;5097701;28;20080;-70
2023/05/04 09:18:06;;;;;;;1.08;0.93;;;17.00;63.70;;;;;;5115390;28;20032;-70
2023/05/04 09:20:45;;;;;;;1.00;0.80;;;17.10;63.60;;;;;;5116015;28;20040;-70
2023/05/04 09:23:12;;;;;;;1.05;0.98;;;17.10;63.60;;;;;;5097971;28;20075;-70
2023/05/04 09:25:53;;;;;;;0.93;0.80;;;17.20;63.60;;;;;;5115835;28;20454;-70
2023/05/04 09:28:33;;;;;;;0.82;0.80;;;17.40;63.50;;;;;;5115464;28;20040;-70
2023/05/04 09:31:00;;;;;;;1.48;1.00;;;17.40;63.40;;;;;;5096974;28;20096;-70
2023/05/04 09:33:26;;;;;;;0.80;0.80;;;17.40;63.40;;;;;;5115619;28;20496;-70
2023/05/04 09:35:51;;;;;;;2.15;0.88;;;17.50;63.60;;;;;;5115358;28;20039;-70
2023/05/04 09:38:26;;;;;;;1.02;0.88;;;17.50;63.50;;;;;;5097496;28;20042;-71
2023/05/04 09:40:52;;;;;;;0.93;0.70;;;17.60;63.60;;;;;;5115252;28;20050;-70
2023/05/04 09:43:18;;;;;;;1.02;0.70;;;17.60;63.60;;;;;;5114939;28;20044;-70
2023/05/04 09:45:46;;;;;;;1.02;0.82;;;17.80;63.60;;;;;;5097373;28;20032;-70
2023/05/04 09:48:24;;;;;;;1.13;0.90;;;17.70;63.40;;;;;;5096411;28;20047;-70
2023/05/04 09:50:53;;;;;;;1.00;0.90;;;17.80;63.30;;;;;;5115173;28;20042;-69
2023/05/04 09:53:23;;;;;;;1.20;1.05;;;17.90;63.20;;;;;;5096615;28;20046;-69
2023/05/04 09:56:10;;;;;;;1.10;1.00;;;17.80;63.10;;;;;;5096668;28;20130;-69
2023/05/04 09:58:36;;;;;;;1.17;0.88;;;17.90;63.20;;;;;;5114635;28;20515;-69
2023/05/04 10:01:02;;;;;;;0.80;0.80;;;18.00;63.10;;;;;;5114925;28;20405;-68
2023/05/04 10:03:28;;;;;;;0.90;0.80;;;18.10;63.00;;;;;;5096525;28;20443;-71
2023/05/04 10:05:56;;;;;;;1.10;0.90;;;18.20;63.00;;;;;;5115069;28;20063;-69
2023/05/04 10:08:22;;;;;;;0.80;0.75;;;18.30;62.80;;;;;;5078217;28;20093;-70
2023/05/04 10:10:48;;;;;;;1.48;0.90;;;18.40;62.60;;;;;;5096239;28;20043;-70
2023/05/04 10:13:16;;;;;;;1.00;0.80;;;18.60;62.60;;;;;;5078206;28;20044;-70
2023/05/04 10:16:04;;;;;;;0.70;0.70;;;18.70;62.30;;;;;;5095237;28;20516;-70
2023/05/04 10:19:04;;;;;;;1.30;0.98;;;18.80;62.10;;;;;;5114376;28;20046;-70
2023/05/04 10:21:47;;;;;;;1.27;0.85;;;18.90;62.00;;;;;;5114401;28;20050;-70
2023/05/04 10:24:35;;;;;;;0.75;0.70;;;19.00;61.70;;;;;;5114420;28;20051;-70
2023/05/04 10:27:35;;;;;;;1.42;0.90;;;19.00;61.70;;;;;;5114337;28;20044;-70
2023/05/04 10:30:01;;;;;;;0.60;0.57;;;19.10;61.50;;;;;;5083589;28;20065;-70
2023/05/04 10:32:27;;;;;;;0.88;0.82;;;19.20;61.60;;;;;;5114332;28;20281;-71
2023/05/04 10:35:04;;;;;;;1.42;0.95;;;19.30;61.60;;;;;;5114443;28;20161;-71
2023/05/04 10:37:30;;;;;;;1.10;1.00;;;19.30;61.20;;;;;;5114300;28;20172;-70
2023/05/04 10:39:57;;;;;;;1.27;1.00;;;19.40;61.20;;;;;;5114815;28;20063;-70
2023/05/04 10:42:23;;;;;;;0.95;0.80;;;19.50;61.10;;;;;;5096480;28;20039;-70
2023/05/04 10:44:52;;;;;;;1.70;0.90;;;19.60;60.90;;;;;;5114203;28;20066;-70
2023/05/04 10:47:34;;;;;;;0.82;0.70;;;19.60;60.80;;;;;;5114050;28;20484;-70
2023/05/04 10:50:04;;;;;;;1.13;0.73;;;19.80;60.90;;;;;;5113907;28;20055;-71
2023/05/04 10:52:31;;;;;;;1.10;1.00;;;19.80;60.80;;;;;;5095718;28;20047;-70
2023/05/04 10:55:00;;;;;;;1.63;0.75;;;20.00;60.50;;;;;;5114017;28;20127;-71
2023/05/04 10:57:27;;;;;;;1.45;1.08;;;20.00;60.30;;;;;;5096342;28;20039;-71
2023/05/04 10:59:56;;;;;;;0.77;0.75;;;20.10;60.40;;;;;;5114607;28;20048;-71
2023/05/04 11:02:23;;;;;;;2.10;0.70;;;20.10;60.20;;;;;;5113766;28;20039;-71
2023/05/04 11:05:05;;;;;;;0.60;0.60;;;20.20;60.20;;;;;;5113872;28;20036;-71
2023/05/04 11:07:36;;;;;;;1.60;1.05;;;20.30;60.00;;;;;;5095660;28;20078;-71
2023/05/04 11:10:05;;;;;;;1.58;1.00;;;20.40;60.00;;;;;;5113698;28;20031;-71
2023/05/04 11:12:31;;;;;;;1.15;0.90;;;20.50;59.70;;;;;;5114271;28;20047;-70
2023/05/04 11:15:08;;;;;;;2.13;1.00;;;20.60;59.60;;;;;;5113796;28;20047;-70
2023/05/04 11:17:43;;;;;;;1.25;1.10;;;20.60;59.50;;;;;;5114192;28;20122;-72
2023/05/04 11:20:09;;;;;;;1.42;0.90;;;20.60;59.40;;;;;;5113506;28;20192;-70
2023/05/04 11:22:36;;;;;;;0.95;0.85;;;20.70;59.30;;;;;;5113883;28;20040;-72
2023/05/04 11:25:02;;;;;;;2.08;1.02;;;20.80;59.20;;;;;;5112504;28;20043;-71
2023/05/04 11:27:28;;;;;;;1.98;1.10;;;20.90;59.10;;;;;;5078897;28;20043;-71
2023/05/04 11:29:56;;;;;;;0.80;0.65;;;20.90;58.90;;;;;;5113971;28;20073;-71
2023/05/04 11:32:31;;;;;;;1.95;1.00;;;21.00;58.80;;;;;;5113906;28;20042;-71
2023/05/04 11:34:57;;;;;;;1.42;0.80;;;21.20;58.60;;;;;;5095789;28;20047;-71
2023/05/04 11:37:23;;;;;;;1.17;0.95;;;21.20;58.40;;;;;;5113311;28;20039;-71
2023/05/04 11:39:48;;;;;;;0.80;0.80;;;21.30;58.30;;;;;;5113346;28;20039;-71
2023/05/04 11:42:15;;;;;;;0.80;0.80;;;21.40;58.40;;;;;;5095504;28;20043;-71
2023/05/04 11:44:41;;;;;;;0.70;0.70;;;21.40;58.30;;;;;;5113725;28;20047;-71
2023/05/04 11:47:07;;;;;;;2.08;1.13;;;21.40;58.30;;;;;;5113615;28;20118;-71
2023/05/04 11:49:33;;;;;;;1.30;0.93;;;21.40;58.20;;;;;;5093278;28;20040;-71
2023/05/04 11:52:07;;;;;;;1.20;1.00;;;21.50;58.30;;;;;;5112982;28;20119;-71
2023/05/04 11:54:33;;;;;;;1.38;1.00;;;21.50;58.10;;;;;;5113226;28;20138;-71
2023/05/04 11:57:00;;;;;;;2.55;1.27;;;21.60;58.10;;;;;;5113468;28;20521;-70
2023/05/04 11:59:26;;;;;;;1.38;1.10;;;21.60;58.00;;;;;;5112861;28;20043;-71
2023/05/04 12:01:51;;;;;;;1.17;0.93;;;21.60;57.90;;;;;;5112909;28;20043;-70
2023/05/04 12:04:17;;;;;;;1.55;1.00;;;21.60;58.00;;;;;;5112741;28;20138;-70
2023/05/04 12:06:45;;;;;;;1.10;0.95;;;21.60;58.00;;;;;;5112779;28;20046;-71
2023/05/04 12:09:10;;;;;;;0.93;0.88;;;21.70;57.90;;;;;;5112865;28;20489;-71
2023/05/04 12:11:37;;;;;;;1.25;0.88;;;21.70;57.90;;;;;;5112926;28;20040;-70
2023/05/04 12:14:08;;;;;;;1.08;0.90;;;21.70;57.80;;;;;;5109135;28;20096;-70
2023/05/04 12:16:35;;;;;;;1.58;1.10;;;21.70;57.70;;;;;;5112884;28;20047;-71
2023/05/04 12:19:09;;;;;;;0.70;0.70;;;21.70;57.60;;;;;;5113016;28;20051;-70
2023/05/04 12:21:35;;;;;;;1.08;0.82;;;21.70;57.70;;;;;;5112612;28;20044;-71
2023/05/04 12:24:02;;;;;;;1.35;1.00;;;21.80;57.70;;;;;;5112482;28;20065;-71
2023/05/04 12:26:28;;;;;;;1.83;0.98;;;21.80;57.60;;;;;;5112658;28;20047;-70
2023/05/04 12:28:55;;;;;;;1.42;1.00;;;21.90;57.60;;;;;;5112471;28;20043;-70
2023/05/04 12:31:22;;;;;;;0.85;0.70;;;21.90;57.50;;;;;;5112667;28;20064;-70
2023/05/04 12:33:49;;;;;;;1.08;0.95;;;21.90;57.50;;;;;;5112426;28;20043;-70
2023/05/04 12:36:16;;;;;;;1.70;0.90;;;21.90;57.50;;;;;;5115395;28;20047;-70
2023/05/04 12:38:41;;;;;;;1.88;1.00;;;22.00;57.40;;;;;;5115988;28;20043;-71
2023/05/04 12:41:09;;;;;;;2.05;1.20;;;22.00;57.90;;;;;;5115960;28;20134;-70
2023/05/04 12:43:35;;;;;;;1.02;0.80;;;22.00;57.20;;;;;;5116355;28;20052;-70
2023/05/04 12:46:01;;;;;;;1.23;1.08;;;22.00;57.20;;;;;;5115817;28;20077;-70
2023/05/04 12:48:30;;;;;;;1.20;1.00;;;22.00;57.10;;;;;;5115806;28;20036;-70
2023/05/04 12:50:57;;;;;;;0.98;0.88;;;22.00;57.00;;;;;;5116014;28;20028;-70
2023/05/04 12:53:26;;;;;;;0.93;0.88;;;22.00;57.00;;;;;;5115876;28;20046;-70